sensor_id;sensor_type;location;lat;lon;timestamp;pressure;altitude;pressure_sealevel;temperature;humidity
66666;BME280;53566;50.814;20.688;2022-07-10T00:00:22;101567.18;;;12.46;81.94
66666;BME280;53566;50.814;20.688;2022-07-10T00:07:02;101691.34;;;12.53;81.48
66666;BME280;53566;50.814;20.688;2022-07-10T00:14:17;101656.69;;;12.33;82.24000000000001
66666;BME280;53566;50.814;20.688;2022-07-10T00:21:04;101531.67;;;12.200000000000001;82.33
66666;BME280;53566;50.814;20.688;2022-07-10T00:28:06;101683.5;;;12.09;82.72
66666;BME280;53566;50.814;20.688;2022-07-10T00:35:16;101525.18;;;11.879999999999999;83.27000000000001
66666;BME280;53566;50.814;20.688;2022-07-10T00:42:29;101653.78;;;11.87;83.64999999999999
66666;BME280;53566;50.814;20.688;2022-07-10T00:49:20;101506.77;;;11.73;83.78
66666;BME280;53566;50.814;20.688;2022-07-10T00:56:30;101577.82;;;11.58;84.52
66666;BME280;53566;50.814;20.688;2022-07-10T01:00:19;101535.38;;;11.440000000000001;85.32
66666;BME280;53566;50.814;20.688;2022-07-10T01:07:06;101603.75;;;11.32;85.58
66666;BME280;53566;50.814;20.688;2022-07-10T01:14:05;101476.5;;;11.35;85.11
66666;BME280;53566;50.814;20.688;2022-07-10T01:21:38;101541.58;;;11.34;85.79
66666;BME280;53566;50.814;20.688;2022-07-10T01:28:22;101509.08;;;11.31;86.08
66666;BME280;53566;50.814;20.688;2022-07-10T01:35:10;101453.81;;;11.200000000000001;86.46
66666;BME280;53566;50.814;20.688;2022-07-10T01:42:03;101624.43;;;11.15;86.67
66666;BME280;53566;50.814;20.688;2022-07-10T01:49:18;101599.22;;;11.1;86.85
66666;BME280;53566;50.814;20.688;2022-07-10T01:56:12;101590.93;;;10.93;87.1
66666;BME280;53566;50.814;20.688;2022-07-10T02:00:25;101561.94;;;10.85;87.34
66666;BME280;53566;50.814;20.688;2022-07-10T02:07:21;101496.98;;;10.86;87.53
66666;BME280;53566;50.814;20.688;2022-07-10T02:14:04;101497.62;;;10.76;88.6
66666;BME280;53566;50.814;20.688;2022-07-10T02:21:07;101584.6;;;10.68;88.44
66666;BME280;53566;50.814;20.688;2022-07-10T02:28:22;101505.62;;;10.67;88.33
66666;BME280;53566;50.814;20.688;2022-07-10T02:35:04;101557.61;;;10.64;88.82
66666;BME280;53566;50.814;20.688;2022-07-10T02:42:05;101520.23;;;10.63;88.84
66666;BME280;53566;50.814;20.688;2022-07-10T02:49:18;101536.78;;;10.61;89.8
66666;BME280;53566;50.814;20.688;2022-07-10T02:56:15;101406.49;;;10.56;90.14
66666;BME280;53566;50.814;20.688;2022-07-10T03:00:21;101446.96;;;10.489999999999998;90.15
66666;BME280;53566;50.814;20.688;2022-07-10T03:07:05;101502.9;;;10.48;90.64
66666;BME280;53566;50.814;20.688;2022-07-10T03:14:09;101474.44;;;10.440000000000001;91.14
66666;BME280;53566;50.814;20.688;2022-07-10T03:21:18;101378.35;;;10.31;91.64
66666;BME280;53566;50.814;20.688;2022-07-10T03:28:14;101409.18;;;10.33;91.63
66666;BME280;53566;50.814;20.688;2022-07-10T03:35:16;101463.05;;;10.28;91.24
66666;BME280;53566;50.814;20.688;2022-07-10T03:42:19;101547.14;;;10.32;91.02
66666;BME280;53566;50.814;20.688;2022-07-10T03:49:03;101463.42;;;10.319999999999999;91.46
66666;BME280;53566;50.814;20.688;2022-07-10T04:00:02;101445.98;;;10.459999999999999;91.05
66666;BME280;53566;50.814;20.688;2022-07-10T04:07:08;101507.41;;;10.5;91.19
66666;BME280;53566;50.814;20.688;2022-07-10T04:14:17;101550.44;;;10.66;91.8
66666;BME280;53566;50.814;20.688;2022-07-10T04:21:03;101365.32;;;10.7;91.78
66666;BME280;53566;50.814;20.688;2022-07-10T04:28:18;101371.29;;;10.809999999999999;91.39
66666;BME280;53566;50.814;20.688;2022-07-10T04:35:03;101412.32;;;10.94;91.77
66666;BME280;53566;50.814;20.688;2022-07-10T04:42:08;101499.32;;;10.98;91.78
66666;BME280;53566;50.814;20.688;2022-07-10T04:49:19;101509.52;;;11.02;91.49
66666;BME280;53566;50.814;20.688;2022-07-10T04:56:03;101411.48;;;11.23;91.23
66666;BME280;53566;50.814;20.688;2022-07-10T05:00:20;101443.48;;;11.23;91.04
66666;BME280;53566;50.814;20.688;2022-07-10T05:07:03;101445.47;;;11.4;91.11
66666;BME280;53566;50.814;20.688;2022-07-10T05:14:17;101431.5;;;11.48;91.12
66666;BME280;53566;50.814;20.688;2022-07-10T05:21:08;101352.37;;;11.729999999999999;91.27
66666;BME280;53566;50.814;20.688;2022-07-10T05:28:02;101361.49;;;11.739999999999998;91.9
66666;BME280;53566;50.814;20.688;2022-07-10T05:35:04;101469.19;;;11.91;91.5
66666;BME280;53566;50.814;20.688;2022-07-10T05:42:04;101340.02;;;11.97;91.73
66666;BME280;53566;50.814;20.688;2022-07-10T05:49:21;101516.29;;;11.989999999999998;91.43
66666;BME280;53566;50.814;20.688;2022-07-10T05:56:06;101340.85;;;12.08;91.5
66666;BME280;53566;50.814;20.688;2022-07-10T06:00:23;101514.5;;;11.969999999999999;91.25
66666;BME280;53566;50.814;20.688;2022-07-10T06:07:19;101431.37;;;11.959999999999999;91.62
66666;BME280;53566;50.814;20.688;2022-07-10T06:14:18;101377.84;;;11.99;91.23
66666;BME280;53566;50.814;20.688;2022-07-10T06:21:19;101409.25;;;12.040000000000001;91.54
66666;BME280;53566;50.814;20.688;2022-07-10T06:28:07;101352.94;;;12.14;91.21
66666;BME280;53566;50.814;20.688;2022-07-10T06:35:03;101405.45;;;12.19;91.39
66666;BME280;53566;50.814;20.688;2022-07-10T06:42:19;101424.32;;;12.37;91.54
66666;BME280;53566;50.814;20.688;2022-07-10T06:49:05;101529.9;;;12.479999999999999;91.23
66666;BME280;53566;50.814;20.688;2022-07-10T06:56:19;101512.96;;;12.65;91.19
66666;BME280;53566;50.814;20.688;2022-07-10T07:00:22;101480.49;;;12.69;91.21
66666;BME280;53566;50.814;20.688;2022-07-10T07:07:16;101449.65;;;12.8;91.43
66666;BME280;53566;50.814;20.688;2022-07-10T07:14:16;101382.06;;;12.93;91.76
66666;BME280;53566;50.814;20.688;2022-07-10T07:28:04;101508.46;;;13.11;91.11
66666;BME280;53566;50.814;20.688;2022-07-10T07:35:17;101397.95;;;13.120000000000001;91.21
66666;BME280;53566;50.814;20.688;2022-07-10T07:42:17;101528.27;;;13.15;90.84
66666;BME280;53566;50.814;20.688;2022-07-10T07:49:17;101461.6;;;13.129999999999999;90.89
66666;BME280;53566;50.814;20.688;2022-07-10T07:56:19;101363.91;;;13.22;90.78
66666;BME280;53566;50.814;20.688;2022-07-10T08:00:17;101449.3;;;13.2;90.53
66666;BME280;53566;50.814;20.688;2022-07-10T08:07:02;101430.91;;;13.12;90.78999999999999
66666;BME280;53566;50.814;20.688;2022-07-10T08:14:17;101420.3;;;13.219999999999999;90.93
66666;BME280;53566;50.814;20.688;2022-07-10T08:21:18;101558.36;;;13.11;91.1
66666;BME280;53566;50.814;20.688;2022-07-10T08:28:16;101567.41;;;13.19;91.07
66666;BME280;53566;50.814;20.688;2022-07-10T08:35:03;101442.54;;;13.149999999999999;90.33
66666;BME280;53566;50.814;20.688;2022-07-10T08:42:24;101585.57;;;13.31;90.77
66666;BME280;53566;50.814;20.688;2022-07-10T08:49:46;101421.57;;;13.56;90.14
66666;BME280;53566;50.814;20.688;2022-07-10T08:56:14;101594.3;;;13.76;89.01
66666;BME280;53566;50.814;20.688;2022-07-10T09:00:17;101544.14;;;14.08;88.75
66666;BME280;53566;50.814;20.688;2022-07-10T09:07:03;101572.04;;;14.25;89.22
66666;BME280;53566;50.814;20.688;2022-07-10T09:14:29;101439.96;;;14.530000000000001;88.88
66666;BME280;53566;50.814;20.688;2022-07-10T09:21:35;101533.74;;;15.06;87.97
66666;BME280;53566;50.814;20.688;2022-07-10T09:28:06;101419.25;;;15.31;87.36
66666;BME280;53566;50.814;20.688;2022-07-10T09:42:43;101458.54;;;16.01;87.22
66666;BME280;53566;50.814;20.688;2022-07-10T09:49:20;101569.46;;;16.17;86.31
66666;BME280;53566;50.814;20.688;2022-07-10T09:56:22;101574.31;;;16.42;84.66
66666;BME280;53566;50.814;20.688;2022-07-10T10:00:05;101525.27;;;16.62;84.23
66666;BME280;53566;50.814;20.688;2022-07-10T10:07:18;101551.92;;;16.77;84.19999999999999
66666;BME280;53566;50.814;20.688;2022-07-10T10:14:28;101516.67;;;16.84;82.98
66666;BME280;53566;50.814;20.688;2022-07-10T10:21:26;101480.32;;;16.99;81.95
66666;BME280;53566;50.814;20.688;2022-07-10T10:28:08;101424.16;;;16.97;81.57
66666;BME280;53566;50.814;20.688;2022-07-10T10:35:05;101403.25;;;17.080000000000002;79.75
66666;BME280;53566;50.814;20.688;2022-07-10T10:42:45;101533.63;;;17.22;79.72
66666;BME280;53566;50.814;20.688;2022-07-10T10:49:53;101531.14;;;17.07;79.17
66666;BME280;53566;50.814;20.688;2022-07-10T10:56:38;101460.12;;;17.05;79.67
66666;BME280;53566;50.814;20.688;2022-07-10T11:00:44;101495.56;;;17.139999999999997;79.23
66666;BME280;53566;50.814;20.688;2022-07-10T11:07:03;101410.52;;;17.08;78.47999999999999
66666;BME280;53566;50.814;20.688;2022-07-10T11:14:13;101444.95;;;16.990000000000002;77.92
66666;BME280;53566;50.814;20.688;2022-07-10T11:21:03;101337.85;;;16.92;77.45
66666;BME280;53566;50.814;20.688;2022-07-10T11:28:22;101425.51;;;16.919999999999998;76.63
66666;BME280;53566;50.814;20.688;2022-07-10T11:35:27;101426.48;;;16.83;76.23
66666;BME280;53566;50.814;20.688;2022-07-10T11:42:20;101360.62;;;16.8;75.49000000000001
66666;BME280;53566;50.814;20.688;2022-07-10T11:49:20;101393.92;;;16.79;74.85
66666;BME280;53566;50.814;20.688;2022-07-10T11:56:04;101518.39;;;16.92;74.26
66666;BME280;53566;50.814;20.688;2022-07-10T12:00:21;101396.02;;;16.86;74.4
66666;BME280;53566;50.814;20.688;2022-07-10T12:07:13;101507.28;;;16.979999999999997;73.93
66666;BME280;53566;50.814;20.688;2022-07-10T12:14:16;101382.31;;;16.98;74.46
66666;BME280;53566;50.814;20.688;2022-07-10T12:21:19;101345.24;;;17.06;73.87
66666;BME280;53566;50.814;20.688;2022-07-10T12:28:19;101317.38;;;17.05;74.07
66666;BME280;53566;50.814;20.688;2022-07-10T12:35:19;101390.41;;;16.95;74.11
66666;BME280;53566;50.814;20.688;2022-07-10T12:42:26;101320.11;;;17.040000000000003;74.41
66666;BME280;53566;50.814;20.688;2022-07-10T12:49:21;101502.96;;;17.03;74.25
66666;BME280;53566;50.814;20.688;2022-07-10T12:56:10;101463.81;;;17.060000000000002;74.02
66666;BME280;53566;50.814;20.688;2022-07-10T13:00:06;101510.75;;;16.91;73.89
66666;BME280;53566;50.814;20.688;2022-07-10T13:07:12;101427.49;;;16.96;73.95
66666;BME280;53566;50.814;20.688;2022-07-10T13:14:13;101515.7;;;16.82;73.58999999999999
66666;BME280;53566;50.814;20.688;2022-07-10T13:21:07;101370.14;;;16.73;73.24
66666;BME280;53566;50.814;20.688;2022-07-10T13:28:03;101506.23;;;16.8;73.5
66666;BME280;53566;50.814;20.688;2022-07-10T13:35:15;101488.97;;;16.740000000000002;72.97
66666;BME280;53566;50.814;20.688;2022-07-10T13:42:18;101414.64;;;16.6;72.8
66666;BME280;53566;50.814;20.688;2022-07-10T13:49:22;101472.88;;;16.7;72.45
66666;BME280;53566;50.814;20.688;2022-07-10T13:56:06;101439.13;;;16.75;71.77
66666;BME280;53566;50.814;20.688;2022-07-10T14:00:17;101501.78;;;16.799999999999997;71.84
66666;BME280;53566;50.814;20.688;2022-07-10T14:07:17;101357.98;;;16.82;72.06
66666;BME280;53566;50.814;20.688;2022-07-10T14:14:06;101414.49;;;16.82;71.8
66666;BME280;53566;50.814;20.688;2022-07-10T14:21:14;101489.4;;;16.9;71.57
66666;BME280;53566;50.814;20.688;2022-07-10T14:28:02;101537.8;;;16.83;71.68
66666;BME280;53566;50.814;20.688;2022-07-10T14:35:08;101391.43;;;16.95;71.64
66666;BME280;53566;50.814;20.688;2022-07-10T14:42:06;101343.95;;;16.95;71.67999999999999
66666;BME280;53566;50.814;20.688;2022-07-10T14:49:18;101524.6;;;16.98;71.07
66666;BME280;53566;50.814;20.688;2022-07-10T14:56:08;101531.38;;;16.87;70.9
66666;BME280;53566;50.814;20.688;2022-07-10T15:00:04;101473.96;;;16.83;70.72
66666;BME280;53566;50.814;20.688;2022-07-10T15:07:06;101423.13;;;16.92;70.82
66666;BME280;53566;50.814;20.688;2022-07-10T15:14:17;101454.98;;;16.87;70.61
66666;BME280;53566;50.814;20.688;2022-07-10T15:21:17;101454.57;;;16.869999999999997;70.38
66666;BME280;53566;50.814;20.688;2022-07-10T15:28:05;101532.12;;;16.849999999999998;70.32
66666;BME280;53566;50.814;20.688;2022-07-10T15:35:08;101539.92;;;16.770000000000003;70.29
66666;BME280;53566;50.814;20.688;2022-07-10T15:42:16;101414.38;;;16.74;70.18
66666;BME280;53566;50.814;20.688;2022-07-10T15:49:07;101404.47;;;16.72;70.94
66666;BME280;53566;50.814;20.688;2022-07-10T15:56:17;101440.93;;;16.49;71.44999999999999
66666;BME280;53566;50.814;20.688;2022-07-10T16:00:05;101511.38;;;16.35;71.59
66666;BME280;53566;50.814;20.688;2022-07-10T16:07:17;101430.13;;;16.32;72.11999999999999
66666;BME280;53566;50.814;20.688;2022-07-10T16:14:03;101520.33;;;16.209999999999997;72.81
66666;BME280;53566;50.814;20.688;2022-07-10T16:21:15;101535.69;;;16.05;73.11
66666;BME280;53566;50.814;20.688;2022-07-10T16:28:19;101498.83;;;16.02;73.97999999999999
66666;BME280;53566;50.814;20.688;2022-07-10T16:35:16;101546.43;;;15.79;74.69
66666;BME280;53566;50.814;20.688;2022-07-10T16:42:04;101546.4;;;15.799999999999999;74.98
66666;BME280;53566;50.814;20.688;2022-07-10T16:49:19;101529.33;;;15.78;75.11
66666;BME280;53566;50.814;20.688;2022-07-10T16:56:22;101515.94;;;15.680000000000001;75.08
66666;BME280;53566;50.814;20.688;2022-07-10T17:00:01;101550.2;;;15.63;75.45
66666;BME280;53566;50.814;20.688;2022-07-10T17:07:09;101463.07;;;15.6;75.72999999999999
66666;BME280;53566;50.814;20.688;2022-07-10T17:14:12;101565.4;;;15.44;75.72
66666;BME280;53566;50.814;20.688;2022-07-10T17:21:19;101554.83;;;15.38;76.09
66666;BME280;53566;50.814;20.688;2022-07-10T17:28:05;101506.51;;;15.280000000000001;77.06
66666;BME280;53566;50.814;20.688;2022-07-10T17:35:18;101557.44;;;15.08;77.01
66666;BME280;53566;50.814;20.688;2022-07-10T17:42:14;101566.97;;;15.15;77.8
66666;BME280;53566;50.814;20.688;2022-07-10T17:49:04;101566.85;;;15.040000000000001;77.89
66666;BME280;53566;50.814;20.688;2022-07-10T17:56:05;101469.97;;;14.72;78.77
66666;BME280;53566;50.814;20.688;2022-07-10T18:00:14;101601.11;;;14.76;78.28
66666;BME280;53566;50.814;20.688;2022-07-10T18:07:05;101604.94;;;14.59;78.99
66666;BME280;53566;50.814;20.688;2022-07-10T18:14:14;101475.73;;;14.61;78.5
66666;BME280;53566;50.814;20.688;2022-07-10T18:21:16;101514.73;;;14.37;79.23
66666;BME280;53566;50.814;20.688;2022-07-10T18:28:14;101649.39;;;14.16;78.89
66666;BME280;53566;50.814;20.688;2022-07-10T18:35:02;101624.68;;;13.92;79.21
66666;BME280;53566;50.814;20.688;2022-07-10T18:42:13;101528.93;;;13.799999999999999;79.57
66666;BME280;53566;50.814;20.688;2022-07-10T18:49:04;101580.07;;;13.73;79.14999999999999
66666;BME280;53566;50.814;20.688;2022-07-10T18:56:22;101545.57;;;13.49;79.44
66666;BME280;53566;50.814;20.688;2022-07-10T19:00:18;101473.13;;;13.41;80.11
66666;BME280;53566;50.814;20.688;2022-07-10T19:07:06;101573.4;;;13.41;79.92999999999999
66666;BME280;53566;50.814;20.688;2022-07-10T19:14:03;101544.05;;;13.34;79.78
66666;BME280;53566;50.814;20.688;2022-07-10T19:21:17;101597.78;;;13.28;79.86
66666;BME280;53566;50.814;20.688;2022-07-10T19:28:04;101573.37;;;13.3;80.44
66666;BME280;53566;50.814;20.688;2022-07-10T19:35:17;101589.56;;;13.07;80.50999999999999
66666;BME280;53566;50.814;20.688;2022-07-10T19:42:04;101495.21;;;13.010000000000002;80.42999999999999
66666;BME280;53566;50.814;20.688;2022-07-10T19:49:16;101612.52;;;12.93;80.59
66666;BME280;53566;50.814;20.688;2022-07-10T19:56:17;101515.78;;;12.7;80.8
66666;BME280;53566;50.814;20.688;2022-07-10T20:00:03;101630.92;;;12.72;81.02
66666;BME280;53566;50.814;20.688;2022-07-10T20:07:02;101588.14;;;12.53;81.27000000000001
66666;BME280;53566;50.814;20.688;2022-07-10T20:14:14;101596.23;;;12.48;81.25
66666;BME280;53566;50.814;20.688;2022-07-10T20:21:18;101664.55;;;12.299999999999999;81.87
66666;BME280;53566;50.814;20.688;2022-07-10T20:28:13;101535.74;;;12.2;81.89
66666;BME280;53566;50.814;20.688;2022-07-10T20:35:18;101537.36;;;12.17;82.0
66666;BME280;53566;50.814;20.688;2022-07-10T20:42:13;101638.25;;;12.030000000000001;82.19999999999999
66666;BME280;53566;50.814;20.688;2022-07-10T20:49:19;101623.19;;;11.98;82.78999999999999
66666;BME280;53566;50.814;20.688;2022-07-10T20:56:19;101569.0;;;11.81;83.42
66666;BME280;53566;50.814;20.688;2022-07-10T21:00:03;101515.01;;;11.690000000000001;83.67999999999999
66666;BME280;53566;50.814;20.688;2022-07-10T21:07:15;101662.0;;;11.600000000000001;83.67999999999999
66666;BME280;53566;50.814;20.688;2022-07-10T21:14:14;101605.79;;;11.46;84.37
66666;BME280;53566;50.814;20.688;2022-07-10T21:21:03;101527.86;;;11.34;84.72999999999999
66666;BME280;53566;50.814;20.688;2022-07-10T21:28:02;101696.9;;;11.22;85.24
66666;BME280;53566;50.814;20.688;2022-07-10T21:35:05;101582.08;;;11.129999999999999;85.37
66666;BME280;53566;50.814;20.688;2022-07-10T21:42:13;101523.35;;;11.11;85.6
66666;BME280;53566;50.814;20.688;2022-07-10T21:49:18;101657.88;;;11.079999999999998;85.57
66666;BME280;53566;50.814;20.688;2022-07-10T21:56:16;101657.35;;;10.99;86.0
66666;BME280;53566;50.814;20.688;2022-07-10T22:00:24;101601.11;;;10.99;86.05000000000001
66666;BME280;53566;50.814;20.688;2022-07-10T22:07:24;101695.19;;;10.940000000000001;85.99
66666;BME280;53566;50.814;20.688;2022-07-10T22:14:17;101700.6;;;10.94;86.42
66666;BME280;53566;50.814;20.688;2022-07-10T22:21:17;101659.92;;;10.9;86.78999999999999
66666;BME280;53566;50.814;20.688;2022-07-10T22:28:19;101584.51;;;10.799999999999999;86.81
66666;BME280;53566;50.814;20.688;2022-07-10T22:35:08;101615.18;;;10.82;87.26
66666;BME280;53566;50.814;20.688;2022-07-10T22:42:16;101659.19;;;10.780000000000001;86.53
66666;BME280;53566;50.814;20.688;2022-07-10T22:49:04;101613.16;;;10.81;87.23
66666;BME280;53566;50.814;20.688;2022-07-10T22:56:19;101682.53;;;10.76;86.58
66666;BME280;53566;50.814;20.688;2022-07-10T23:00:02;101653.47;;;10.85;87.2
66666;BME280;53566;50.814;20.688;2022-07-10T23:07:02;101575.72;;;10.799999999999999;87.18
66666;BME280;53566;50.814;20.688;2022-07-10T23:14:03;101540.26;;;10.829999999999998;87.05
66666;BME280;53566;50.814;20.688;2022-07-10T23:21:16;101678.51;;;10.83;86.46
66666;BME280;53566;50.814;20.688;2022-07-10T23:28:04;101694.0;;;10.860000000000001;86.39999999999999
66666;BME280;53566;50.814;20.688;2022-07-10T23:35:18;101657.34;;;10.85;86.19999999999999
66666;BME280;53566;50.814;20.688;2022-07-10T23:42:17;101622.9;;;10.89;86.51
66666;BME280;53566;50.814;20.688;2022-07-10T23:56:14;101602.84;;;10.81;85.75
